Pinon Hills, California
Current Conditions -  °F | °C
As of 12:55 PM on Thursday 23 Oct 2014 (Local Time) from KGXA Reporting Station
Clear Clear  
Wind Chill: 84°   Ceiling: Unl
Heat Index: 84°   Visibility: 10mi
Dew Point: 24°   Wind: 5mph
Humidity: 11%   Direction: NA
Pressure: 30.06"   Gusts: NA
Location:  34.43°N, 117.65°W
Report Text: KGXA 231955Z AUTO VRB04KT 10SM CLR 29/M04 A3006 RMK AO2 SLP151 T02891044
Loading
Personal Weather Stations






























Interactive Weather Map
Tropical Storm Tracking
New forecast layout! Learn more

10-Day Weather Forecast

Advertisements
Track Severe Weather on mobile